createdAt,value
2018-07-01T00:02:37.189Z,54.90
2018-07-01T00:05:40.295Z,55.30
2018-07-01T00:08:43.366Z,55.20
2018-07-01T00:11:46.365Z,56.20
2018-07-01T00:14:49.338Z,55.90
2018-07-01T00:17:52.289Z,55.00
2018-07-01T00:20:55.229Z,55.30
2018-07-01T00:23:58.168Z,55.60
2018-07-01T00:27:01.115Z,55.50
2018-07-01T00:30:05.388Z,55.80
2018-07-01T00:33:08.594Z,55.20
2018-07-01T00:36:11.545Z,55.50
2018-07-01T00:39:14.575Z,55.40
2018-07-01T00:42:17.539Z,55.60
2018-07-01T00:45:20.473Z,55.60
2018-07-01T00:48:23.441Z,56.10
2018-07-01T00:51:26.363Z,55.70
2018-07-01T00:54:29.342Z,56.00
2018-07-01T00:57:32.281Z,55.80
2018-07-01T01:00:35.320Z,55.70
2018-07-01T01:03:38.417Z,55.30
2018-07-01T01:06:41.335Z,56.70
2018-07-01T01:09:44.458Z,55.30
2018-07-01T01:12:47.412Z,56.60
2018-07-01T01:15:50.413Z,56.50
2018-07-01T01:18:53.340Z,55.30
2018-07-01T01:21:56.283Z,55.40
2018-07-01T01:24:59.202Z,55.70
2018-07-01T01:28:02.142Z,55.70
2018-07-01T01:31:05.272Z,55.90
2018-07-01T01:34:08.423Z,55.70
2018-07-01T01:37:11.428Z,55.80
2018-07-01T01:40:16.481Z,56.00
2018-07-01T01:43:27.868Z,54.80
2018-07-01T01:46:35.338Z,56.00
2018-07-01T01:49:43.589Z,55.80
2018-07-01T01:53:50.663Z,55.70
2018-07-01T01:57:14.281Z,55.50
2018-07-01T02:00:25.803Z,56.00
2018-07-01T02:03:35.975Z,56.00
2018-07-01T02:09:45.094Z,55.90
2018-07-01T02:12:48.091Z,56.20
2018-07-01T02:15:54.726Z,55.80
2018-07-01T02:18:57.804Z,56.20
2018-07-01T02:22:02.467Z,56.00
2018-07-01T02:25:09.313Z,56.90
2018-07-01T02:28:12.423Z,56.70
2018-07-01T02:31:15.543Z,56.80
2018-07-01T02:34:18.488Z,57.30
2018-07-01T02:37:21.624Z,56.80
2018-07-01T02:40:24.610Z,56.90
2018-07-01T02:43:27.569Z,57.70
2018-07-01T02:46:30.550Z,57.60
2018-07-01T02:49:33.614Z,57.20
2018-07-01T02:52:37.116Z,57.80
2018-07-01T02:55:40.262Z,57.50
2018-07-01T02:58:43.473Z,57.20
2018-07-01T03:01:46.437Z,57.80
2018-07-01T03:04:49.389Z,57.40
2018-07-01T03:10:48.853Z,56.90
2018-07-01T03:13:51.913Z,57.50
2018-07-01T03:16:54.853Z,58.00
2018-07-01T03:19:57.806Z,58.10
2018-07-01T03:23:00.747Z,58.90
2018-07-01T03:26:03.723Z,59.40
2018-07-01T03:29:06.732Z,59.90
2018-07-01T03:32:09.754Z,59.60
2018-07-01T03:35:12.916Z,60.00
2018-07-01T03:38:15.837Z,60.40
2018-07-01T03:41:18.892Z,60.50
2018-07-01T03:44:21.853Z,60.30
2018-07-01T03:47:24.781Z,61.70
2018-07-01T03:50:27.805Z,61.50
2018-07-01T03:53:30.774Z,61.60
2018-07-01T03:56:33.797Z,61.70
2018-07-01T03:59:36.782Z,62.80
2018-07-01T04:05:42.655Z,63.30
2018-07-01T04:08:45.662Z,64.50
2018-07-01T04:11:48.602Z,65.30
2018-07-01T04:14:51.514Z,66.30
2018-07-01T04:17:54.428Z,66.40
2018-07-01T04:20:57.383Z,68.40
2018-07-01T04:24:00.308Z,70.80
2018-07-01T04:27:03.481Z,70.70
2018-07-01T04:30:06.529Z,73.10
2018-07-01T04:36:12.430Z,75.60
2018-07-01T04:39:15.409Z,76.20
2018-07-01T04:42:18.337Z,78.80
2018-07-01T04:45:21.246Z,81.30
2018-07-01T04:48:24.188Z,82.70
2018-07-01T04:51:27.207Z,84.30
2018-07-01T04:54:30.142Z,85.00
2018-07-01T04:57:33.173Z,87.10
2018-07-01T05:00:36.429Z,88.20
2018-07-01T05:03:39.428Z,89.70
2018-07-01T05:06:42.379Z,90.60
2018-07-01T05:09:45.382Z,90.90
2018-07-01T05:12:48.331Z,91.80
2018-07-01T05:15:51.452Z,92.40
2018-07-01T05:18:54.358Z,92.60
2018-07-01T05:21:57.274Z,93.40
2018-07-01T05:25:00.204Z,94.00
2018-07-01T05:28:03.182Z,94.40
2018-07-01T05:31:06.383Z,94.80
2018-07-01T05:37:12.307Z,95.30
2018-07-01T05:40:15.304Z,95.40
2018-07-01T05:43:18.314Z,96.10
2018-07-01T05:46:21.337Z,96.40
2018-07-01T05:49:24.301Z,96.50
2018-07-01T05:52:27.196Z,96.90
2018-07-01T05:55:30.108Z,96.60
2018-07-01T05:58:33.067Z,94.20
2018-07-01T06:01:36.009Z,93.50
2018-07-01T06:04:38.930Z,96.10
2018-07-01T06:10:45.221Z,95.60
2018-07-01T06:13:48.153Z,93.50
2018-07-01T06:16:51.128Z,89.80
2018-07-01T06:19:54.033Z,92.20
2018-07-01T06:22:56.976Z,93.00
2018-07-01T06:25:59.990Z,94.20
2018-07-01T06:29:03.051Z,94.60
2018-07-01T06:32:06.700Z,91.90
2018-07-01T06:35:10.222Z,84.50
2018-07-01T06:38:13.427Z,90.20
2018-07-01T06:41:16.573Z,92.70
2018-07-01T06:44:20.144Z,84.50
2018-07-01T06:47:23.097Z,81.20
2018-07-01T06:50:26.040Z,80.80
2018-07-01T06:53:29.251Z,88.10
2018-07-01T06:56:32.269Z,80.60
2018-07-01T06:59:35.495Z,71.30
2018-07-01T07:02:38.670Z,70.30
2018-07-01T07:05:41.578Z,70.00
2018-07-01T07:08:44.489Z,66.90
2018-07-01T07:11:47.414Z,63.60
2018-07-01T07:14:50.356Z,63.60
2018-07-01T07:17:53.283Z,63.40
2018-07-01T07:20:56.236Z,63.30
2018-07-01T07:23:59.320Z,61.00
2018-07-01T07:27:08.042Z,59.90
2018-07-01T07:30:11.965Z,62.10
2018-07-01T07:33:15.945Z,61.60
2018-07-01T07:36:19.775Z,58.60
2018-07-01T07:39:22.769Z,60.30
2018-07-01T07:42:26.113Z,59.10
2018-07-01T07:45:29.150Z,57.30
2018-07-01T07:48:32.114Z,57.20
2018-07-01T07:51:35.426Z,58.40
2018-07-01T07:54:38.861Z,53.50
2018-07-01T07:57:42.066Z,54.70
2018-07-01T08:00:44.977Z,54.50
2018-07-01T08:03:47.918Z,55.20
2018-07-01T08:06:50.848Z,51.90
2018-07-01T08:09:53.783Z,51.90
2018-07-01T08:15:59.662Z,49.10
2018-07-01T08:19:02.698Z,49.70
2018-07-01T08:22:06.129Z,48.90
2018-07-01T08:25:09.235Z,46.80
2018-07-01T08:28:12.330Z,47.80
2018-07-01T08:31:15.288Z,50.00
2018-07-01T08:34:18.221Z,46.60
2018-07-01T08:37:21.949Z,49.20
2018-07-01T08:40:24.920Z,50.60
2018-07-01T08:43:28.378Z,51.80
2018-07-01T08:46:31.506Z,46.60
2018-07-01T08:49:34.774Z,49.20
2018-07-01T08:52:38.042Z,46.70
2018-07-01T08:55:41.271Z,48.10
2018-07-01T08:58:44.403Z,47.50
2018-07-01T09:01:48.058Z,48.90
2018-07-01T09:04:51.192Z,48.50
2018-07-01T09:07:54.252Z,45.30
2018-07-01T09:10:57.417Z,45.30
2018-07-01T09:14:00.385Z,51.00
2018-07-01T09:17:03.743Z,48.00
2018-07-01T09:20:06.989Z,47.10
2018-07-01T09:23:10.198Z,47.40
2018-07-01T09:26:14.564Z,45.70
2018-07-01T09:29:17.749Z,48.30
2018-07-01T09:32:20.952Z,47.10
2018-07-01T09:35:24.456Z,47.80
2018-07-01T09:38:29.722Z,45.70
2018-07-01T09:41:32.791Z,45.60
2018-07-01T09:44:35.926Z,47.80
2018-07-01T09:47:38.941Z,45.80
2018-07-01T09:50:41.904Z,43.90
2018-07-01T09:53:45.049Z,47.40
2018-07-01T09:56:48.431Z,45.60
2018-07-01T09:59:51.590Z,46.10
2018-07-01T10:02:54.522Z,46.80
2018-07-01T10:05:57.455Z,47.30
2018-07-01T10:09:00.420Z,44.90
2018-07-01T10:12:03.642Z,45.30
2018-07-01T10:15:06.753Z,44.70
2018-07-01T10:18:09.978Z,44.60
2018-07-01T10:21:13.118Z,46.50
2018-07-01T10:24:16.711Z,46.00
2018-07-01T10:27:19.825Z,44.20
2018-07-01T10:30:22.959Z,46.60
2018-07-01T10:33:26.150Z,46.20
2018-07-01T10:36:29.452Z,44.10
2018-07-01T10:39:32.719Z,42.50
2018-07-01T10:42:36.295Z,42.80
2018-07-01T10:45:39.516Z,44.40
2018-07-01T10:48:42.655Z,44.10
2018-07-01T10:51:45.807Z,44.90
2018-07-01T10:54:48.952Z,42.10
2018-07-01T10:57:52.130Z,42.70
2018-07-01T11:03:58.026Z,42.60
2018-07-01T11:07:00.981Z,42.10
2018-07-01T11:10:04.049Z,43.70
2018-07-01T11:13:06.999Z,41.90
2018-07-01T11:16:09.976Z,43.50
2018-07-01T11:19:12.874Z,43.50
2018-07-01T11:22:15.837Z,43.30
2018-07-01T11:25:18.840Z,42.20
2018-07-01T11:28:21.836Z,42.20
2018-07-01T11:31:24.772Z,42.10
2018-07-01T11:34:27.716Z,42.20
2018-07-01T11:37:30.674Z,41.50
2018-07-01T11:40:33.611Z,41.10
2018-07-01T11:43:36.546Z,44.90
2018-07-01T11:46:39.515Z,44.30
2018-07-01T11:49:42.954Z,44.10
2018-07-01T11:52:45.876Z,43.50
2018-07-01T11:55:48.797Z,44.10
2018-07-01T11:58:51.761Z,45.10
2018-07-01T12:01:55.124Z,41.80
2018-07-01T12:05:16.204Z,43.50
2018-07-01T12:08:00.950Z,44.10
2018-07-01T12:11:03.902Z,42.40
2018-07-01T12:14:06.852Z,42.70
2018-07-01T12:17:09.846Z,42.10
2018-07-01T12:20:12.777Z,43.90
2018-07-01T12:23:15.871Z,42.50
2018-07-01T12:26:18.727Z,43.80
2018-07-01T12:29:21.661Z,42.70
2018-07-01T12:32:24.561Z,42.10
2018-07-01T12:35:28.511Z,42.30
2018-07-01T12:38:31.482Z,42.60
2018-07-01T12:41:34.405Z,41.90
2018-07-01T12:44:37.409Z,42.60
2018-07-01T12:47:40.693Z,40.90
2018-07-01T12:50:43.589Z,40.90
2018-07-01T12:53:46.537Z,42.10
2018-07-01T12:56:49.443Z,41.10
2018-07-01T12:59:52.425Z,41.70
2018-07-01T13:02:55.417Z,41.10
2018-07-01T13:05:58.370Z,40.30
2018-07-01T13:09:01.339Z,40.20
2018-07-01T13:12:04.392Z,41.10
2018-07-01T13:15:07.392Z,40.20
2018-07-01T13:18:10.407Z,41.70
2018-07-01T13:21:13.407Z,41.70
2018-07-01T13:24:16.525Z,39.30
2018-07-01T13:27:19.501Z,40.10
2018-07-01T13:30:22.518Z,39.80
2018-07-01T13:33:25.448Z,39.20
2018-07-01T13:36:28.444Z,38.30
2018-07-01T13:39:31.377Z,37.90
2018-07-01T13:42:34.306Z,39.60
2018-07-01T13:45:37.237Z,40.70
2018-07-01T13:48:40.171Z,38.80
2018-07-01T13:51:43.126Z,38.50
2018-07-01T13:54:46.029Z,42.00
2018-07-01T13:57:48.958Z,38.70
2018-07-01T14:00:51.940Z,39.90
2018-07-01T14:03:54.929Z,40.20
2018-07-01T14:06:57.886Z,39.10
2018-07-01T14:10:00.896Z,40.00
2018-07-01T14:13:03.992Z,39.00
2018-07-01T14:16:06.964Z,39.50
2018-07-01T14:19:09.914Z,40.30
2018-07-01T14:22:12.839Z,39.10
2018-07-01T14:25:15.789Z,39.50
2018-07-01T14:28:18.724Z,38.40
2018-07-01T14:31:21.719Z,40.10
2018-07-01T14:34:24.633Z,38.70
2018-07-01T14:37:27.588Z,40.00
2018-07-01T14:40:30.531Z,40.30
2018-07-01T14:43:33.463Z,39.90
2018-07-01T14:46:36.397Z,38.30
2018-07-01T14:49:39.286Z,36.00
2018-07-01T14:52:42.216Z,39.70
2018-07-01T14:55:45.137Z,39.60
2018-07-01T14:58:48.121Z,39.70
2018-07-01T15:04:53.948Z,40.30
2018-07-01T15:07:56.908Z,38.10
2018-07-01T15:10:59.830Z,38.60
2018-07-01T15:14:03.462Z,38.20
2018-07-01T15:20:09.292Z,39.10
2018-07-01T15:23:12.245Z,37.60
2018-07-01T15:26:15.170Z,37.30
2018-07-01T15:29:18.277Z,38.00
2018-07-01T15:35:23.978Z,37.50
2018-07-01T15:38:26.858Z,36.90
2018-07-01T15:41:29.799Z,39.10
2018-07-01T15:44:32.743Z,40.00
2018-07-01T15:47:35.690Z,37.50
2018-07-01T15:53:41.529Z,36.70
2018-07-01T15:56:44.466Z,37.30
2018-07-01T15:59:47.429Z,38.10
2018-07-01T16:02:50.364Z,38.10
2018-07-01T16:05:53.301Z,36.50
2018-07-01T16:08:56.272Z,36.90
2018-07-01T16:11:59.232Z,39.10
2018-07-01T16:15:02.213Z,38.40
2018-07-01T16:18:05.222Z,38.70
2018-07-01T16:21:08.149Z,38.10
2018-07-01T16:24:11.098Z,39.80
2018-07-01T16:27:15.408Z,38.10
2018-07-01T16:30:18.329Z,37.00
2018-07-01T16:33:21.209Z,37.00
2018-07-01T16:36:24.269Z,36.80
2018-07-01T16:39:27.190Z,37.30
2018-07-01T16:42:30.102Z,38.50
2018-07-01T16:45:39.669Z,37.00
2018-07-01T16:48:42.641Z,35.90
2018-07-01T16:51:45.600Z,37.10
2018-07-01T16:54:48.517Z,36.80
2018-07-01T16:57:51.453Z,36.30
2018-07-01T17:00:54.353Z,38.20
2018-07-01T17:03:57.251Z,39.30
2018-07-01T17:07:00.166Z,37.50
2018-07-01T17:10:03.139Z,38.40
2018-07-01T17:13:06.188Z,40.90
2018-07-01T17:16:09.128Z,42.50
2018-07-01T17:19:12.060Z,40.60
2018-07-01T17:22:15.144Z,39.40
2018-07-01T17:25:18.041Z,38.40
2018-07-01T17:28:22.604Z,40.20
2018-07-01T17:31:31.169Z,39.80
2018-07-01T17:34:34.083Z,41.40
2018-07-01T17:37:37.009Z,40.70
2018-07-01T17:40:40.005Z,39.60
2018-07-01T17:43:42.935Z,40.90
2018-07-01T17:46:45.852Z,38.90
2018-07-01T17:49:48.747Z,40.10
2018-07-01T17:52:51.647Z,40.00
2018-07-01T17:55:54.564Z,38.90
2018-07-01T17:58:57.513Z,39.40
2018-07-01T18:02:00.468Z,38.80
2018-07-01T18:05:03.457Z,39.00
2018-07-01T18:08:06.408Z,39.50
2018-07-01T18:11:09.399Z,41.50
2018-07-01T18:14:12.313Z,41.00
2018-07-01T18:17:15.233Z,41.40
2018-07-01T18:20:18.144Z,40.80
2018-07-01T18:23:53.698Z,39.20
2018-07-01T18:26:24.656Z,40.20
2018-07-01T18:29:27.620Z,41.00
2018-07-01T18:32:30.580Z,41.40
2018-07-01T18:35:33.658Z,42.40
2018-07-01T18:38:36.569Z,42.40
2018-07-01T18:41:39.495Z,43.40
2018-07-01T18:44:42.423Z,43.10
2018-07-01T18:47:45.513Z,42.20
2018-07-01T18:50:48.445Z,42.40
2018-07-01T18:53:51.345Z,42.70
2018-07-01T18:56:54.274Z,43.00
2018-07-01T18:59:57.167Z,43.70
2018-07-01T19:03:00.101Z,43.60
2018-07-01T19:06:03.034Z,44.20
2018-07-01T19:12:10.344Z,45.10
2018-07-01T19:15:13.274Z,45.50
2018-07-01T19:18:16.227Z,46.20
2018-07-01T19:21:19.187Z,47.80
2018-07-01T19:24:22.097Z,47.90
2018-07-01T19:27:25.049Z,47.90
2018-07-01T19:30:28.091Z,45.80
2018-07-01T19:33:31.027Z,47.50
2018-07-01T19:36:33.953Z,47.80
2018-07-01T19:39:36.890Z,45.80
2018-07-01T19:45:42.815Z,47.30
2018-07-01T19:48:45.788Z,47.50
2018-07-01T19:51:48.678Z,47.70
2018-07-01T19:54:51.593Z,47.70
2018-07-01T19:57:54.556Z,46.80
2018-07-01T20:00:57.502Z,47.90
2018-07-01T20:04:00.437Z,48.20
2018-07-01T20:07:03.395Z,48.90
2018-07-01T20:10:06.494Z,48.00
2018-07-01T20:13:09.438Z,49.30
2018-07-01T20:16:12.489Z,49.10
2018-07-01T20:19:15.429Z,49.30
2018-07-01T20:22:18.364Z,49.40
2018-07-01T20:25:21.284Z,49.90
2018-07-01T20:28:24.275Z,50.10
2018-07-01T20:31:27.174Z,49.90
2018-07-01T20:34:30.100Z,49.70
2018-07-01T20:37:33.065Z,50.70
2018-07-01T20:40:36.021Z,50.40
2018-07-01T20:43:39.418Z,49.80
2018-07-01T20:46:42.365Z,49.50
2018-07-01T20:49:45.345Z,50.10
2018-07-01T20:52:48.249Z,50.80
2018-07-01T20:55:51.184Z,50.70
2018-07-01T20:58:54.893Z,49.90
2018-07-01T21:01:57.812Z,50.40
2018-07-01T21:05:00.829Z,49.60
2018-07-01T21:08:04.027Z,49.60
2018-07-01T21:11:07.380Z,50.20
2018-07-01T21:14:10.553Z,49.30
2018-07-01T21:20:18.051Z,51.10
2018-07-01T21:23:21.063Z,50.90
2018-07-01T21:26:24.006Z,49.50
2018-07-01T21:29:28.939Z,50.60
2018-07-01T21:32:32.288Z,51.10
2018-07-01T21:35:35.436Z,50.90
2018-07-01T21:38:38.510Z,51.40
2018-07-01T21:41:41.492Z,51.40
2018-07-01T21:44:46.364Z,51.50
2018-07-01T21:47:49.336Z,51.30
2018-07-01T21:50:52.290Z,51.20
2018-07-01T21:53:55.314Z,49.90
2018-07-01T21:56:58.344Z,50.70
2018-07-01T22:00:02.454Z,51.10
2018-07-01T22:03:05.710Z,51.10
2018-07-01T22:06:08.938Z,50.60
2018-07-01T22:09:12.021Z,51.90
2018-07-01T22:12:32.344Z,50.00
2018-07-01T22:15:52.528Z,50.90
2018-07-01T22:18:55.531Z,50.90
2018-07-01T22:21:59.484Z,50.90
2018-07-01T22:25:02.560Z,52.10
2018-07-01T22:28:05.661Z,52.30
2018-07-01T22:34:12.873Z,51.70
2018-07-01T22:37:15.868Z,51.50
2018-07-01T22:40:18.863Z,51.30
2018-07-01T22:43:21.805Z,51.60
2018-07-01T22:49:27.769Z,52.50
2018-07-01T22:52:30.711Z,51.60
2018-07-01T22:55:33.736Z,51.70
2018-07-01T22:58:36.798Z,51.40
2018-07-01T23:03:49.582Z,51.70
2018-07-01T23:09:55.380Z,52.40
2018-07-01T23:12:58.789Z,52.40
2018-07-01T23:16:01.770Z,50.60
2018-07-01T23:19:04.929Z,52.00
2018-07-01T23:22:07.886Z,52.50
2018-07-01T23:25:11.810Z,52.70
2018-07-01T23:28:14.793Z,52.60
2018-07-01T23:31:17.786Z,53.80
2018-07-01T23:34:20.839Z,53.10
2018-07-01T23:37:23.833Z,52.70
2018-07-01T23:40:26.841Z,52.90
2018-07-01T23:43:29.753Z,52.10
2018-07-01T23:46:32.671Z,52.70
2018-07-01T23:49:35.669Z,52.20
2018-07-01T23:52:38.797Z,52.90
2018-07-01T23:55:41.793Z,53.10
2018-07-01T23:58:44.717Z,52.80
